Time;durP1;ratioP1;P1;durP2;ratioP2;P2;SDS_P1;SDS_P2;PMS_P1;PMS_P2;Temp;Humidity;BMP_temperature;BMP_pressure;BME280_temperature;BME280_humidity;BME280_pressure;Samples;Min_cycle;Max_cycle;Signal;HPM_P1;HPM_P2
2022/05/04 00:00:24;;;;;;;8.50;7.90;;;13.30;99.90;;;;;;10345947;28;20202;-80
2022/05/04 00:05:26;;;;;;;9.53;8.73;;;13.20;99.90;;;;;;10360714;28;20225;-80
2022/05/04 00:10:30;;;;;;;9.60;8.90;;;13.20;99.90;;;;;;10365320;28;20219;-81
2022/05/04 00:15:33;;;;;;;9.97;9.17;;;13.20;99.90;;;;;;10360691;28;20222;-81
2022/05/04 00:20:37;;;;;;;9.50;8.73;;;13.30;99.90;;;;;;10376155;28;20282;-81
2022/05/04 00:25:39;;;;;;;9.97;9.23;;;13.30;99.90;;;;;;10379576;28;20262;-81
2022/05/04 00:30:43;;;;;;;9.67;8.87;;;13.30;99.90;;;;;;10360370;28;20616;-80
2022/05/04 00:35:45;;;;;;;9.60;8.80;;;13.20;99.90;;;;;;10361392;28;21141;-81
2022/05/04 00:40:48;;;;;;;9.50;8.70;;;13.20;99.90;;;;;;10372150;28;20221;-81
2022/05/04 00:45:52;;;;;;;10.87;10.07;;;13.20;99.90;;;;;;10385021;28;20230;-80
2022/05/04 00:50:55;;;;;;;10.70;9.90;;;13.20;99.90;;;;;;10376011;28;20249;-80
2022/05/04 00:56:00;;;;;;;10.47;9.67;;;13.20;99.90;;;;;;10375585;28;20218;-80
2022/05/04 01:01:04;;;;;;;10.80;9.90;;;13.20;99.90;;;;;;10354208;28;20203;-80
2022/05/04 01:06:06;;;;;;;11.13;10.20;;;13.20;99.90;;;;;;10357948;28;20277;-80
2022/05/04 01:11:08;;;;;;;10.50;9.70;;;13.20;99.90;;;;;;10346647;28;20222;-80
2022/05/04 01:16:12;;;;;;;10.30;9.50;;;13.10;99.90;;;;;;10362472;28;20268;-80
2022/05/04 01:21:14;;;;;;;11.50;10.60;;;13.10;99.90;;;;;;10360704;28;20229;-80
2022/05/04 01:26:17;;;;;;;11.57;10.77;;;13.10;99.90;;;;;;10369435;28;20226;-80
2022/05/04 01:31:20;;;;;;;11.40;10.50;;;13.10;99.90;;;;;;10376365;28;20239;-80
2022/05/04 01:36:22;;;;;;;10.80;10.00;;;13.10;99.90;;;;;;10377808;28;20262;-81
2022/05/04 01:46:45;;;;;;;10.87;10.07;;;13.10;99.90;;;;;;10378968;28;20218;-82
2022/05/04 01:51:47;;;;;;;11.60;10.70;;;13.10;99.90;;;;;;10381627;28;20305;-80
2022/05/04 01:56:51;;;;;;;10.70;10.00;;;13.20;99.90;;;;;;10361512;28;20730;-82
2022/05/04 02:01:53;;;;;;;10.67;9.87;;;13.20;99.90;;;;;;10380787;28;20218;-81
2022/05/04 02:06:55;;;;;;;11.77;10.77;;;13.10;99.90;;;;;;10378369;28;20219;-80
2022/05/04 02:11:59;;;;;;;11.50;10.60;;;13.10;99.90;;;;;;10362825;28;20221;-80
2022/05/04 02:17:01;;;;;;;12.47;11.47;;;13.10;99.90;;;;;;10381926;28;20238;-81
2022/05/04 02:22:04;;;;;;;11.87;10.93;;;13.10;99.90;;;;;;10366853;28;20607;-80
2022/05/04 02:27:08;;;;;;;11.63;10.83;;;13.10;99.90;;;;;;10370273;28;20593;-80
2022/05/04 02:32:10;;;;;;;11.30;10.40;;;13.10;99.90;;;;;;10353082;28;20647;-81
2022/05/04 02:42:33;;;;;;;11.10;10.30;;;13.10;99.90;;;;;;10368809;28;20205;-81
2022/05/04 02:47:35;;;;;;;11.40;10.50;;;13.10;99.90;;;;;;10350761;28;20233;-81
2022/05/04 02:52:37;;;;;;;11.97;10.97;;;13.20;99.90;;;;;;10376537;28;20265;-81
2022/05/04 02:57:40;;;;;;;11.87;10.80;;;13.20;99.90;;;;;;10379161;28;20217;-80
2022/05/04 03:02:43;;;;;;;11.10;10.20;;;13.30;99.90;;;;;;10374117;28;20210;-80
2022/05/04 03:07:46;;;;;;;11.43;10.63;;;13.30;99.90;;;;;;10341638;28;20210;-79
2022/05/04 03:12:49;;;;;;;12.03;11.17;;;13.40;99.90;;;;;;10351311;28;20211;-80
2022/05/04 03:17:51;;;;;;;12.67;11.57;;;13.30;99.90;;;;;;10373164;28;20328;-80
2022/05/04 03:22:54;;;;;;;11.53;10.70;;;13.40;99.90;;;;;;10375033;28;20214;-80
2022/05/04 03:27:57;;;;;;;11.40;10.60;;;13.40;99.90;;;;;;10369526;28;20203;-80
2022/05/04 03:32:59;;;;;;;12.10;11.20;;;13.40;99.90;;;;;;10335061;28;20289;-81
2022/05/04 03:38:01;;;;;;;13.40;12.30;;;13.50;99.90;;;;;;10368380;28;20199;-81
2022/05/04 03:43:05;;;;;;;13.03;12.03;;;13.50;99.90;;;;;;10356070;28;20249;-81
2022/05/04 03:48:08;;;;;;;12.67;11.77;;;13.50;99.90;;;;;;10370799;28;20260;-81
2022/05/04 03:53:10;;;;;;;12.40;11.17;;;13.60;99.90;;;;;;10345057;28;20220;-81
2022/05/04 03:58:13;;;;;;;12.97;11.87;;;13.60;99.90;;;;;;10328670;28;20570;-81
2022/05/04 04:03:16;;;;;;;12.23;11.33;;;13.60;99.90;;;;;;10364946;28;20274;-80
2022/05/04 04:08:18;;;;;;;10.47;9.67;;;13.60;99.90;;;;;;10367968;28;20211;-80
2022/05/04 04:13:22;;;;;;;12.20;10.97;;;13.60;99.90;;;;;;10386448;28;20219;-81
2022/05/04 04:18:25;;;;;;;12.80;11.90;;;13.60;99.90;;;;;;10378785;28;20203;-81
2022/05/04 04:23:27;;;;;;;12.20;11.40;;;13.60;99.90;;;;;;10362644;28;20691;-81
2022/05/04 04:28:31;;;;;;;11.93;11.13;;;13.70;99.90;;;;;;10372347;28;20586;-81
2022/05/04 04:33:33;;;;;;;11.73;10.83;;;13.70;99.90;;;;;;10346913;28;20262;-81
2022/05/04 04:38:35;;;;;;;12.60;11.70;;;13.80;99.90;;;;;;10378354;28;20256;-81
2022/05/04 04:43:39;;;;;;;12.20;11.30;;;13.80;99.90;;;;;;10372263;28;20335;-82
2022/05/04 04:48:41;;;;;;;11.00;10.20;;;13.80;99.90;;;;;;10370551;28;20246;-80
2022/05/04 04:53:43;;;;;;;11.63;10.63;;;13.90;99.90;;;;;;10363267;28;20227;-80
2022/05/04 04:58:47;;;;;;;11.13;10.23;;;13.90;99.90;;;;;;10349064;28;20605;-81
2022/05/04 05:03:49;;;;;;;11.50;10.70;;;13.90;99.90;;;;;;10359247;28;20695;-80
2022/05/04 05:08:51;;;;;;;12.70;11.70;;;14.00;99.90;;;;;;10373585;28;20210;-80
2022/05/04 05:19:11;;;;;;;11.97;11.10;;;14.00;99.90;;;;;;10355698;28;20289;-80
2022/05/04 05:24:13;;;;;;;12.90;11.90;;;14.10;99.90;;;;;;10362709;28;20633;-80
2022/05/04 05:29:16;;;;;;;13.23;12.13;;;14.20;99.90;;;;;;10348183;28;20254;-79
2022/05/04 05:34:18;;;;;;;12.60;11.60;;;14.30;99.90;;;;;;10366406;28;20707;-81
2022/05/04 05:39:20;;;;;;;13.27;12.20;;;14.50;99.90;;;;;;10356992;28;20221;-81
2022/05/04 05:44:24;;;;;;;14.90;13.60;;;14.60;99.90;;;;;;10349972;28;20226;-80
2022/05/04 05:49:26;;;;;;;13.40;12.40;;;14.80;99.90;;;;;;10360431;28;20202;-79
2022/05/04 05:54:28;;;;;;;13.03;11.93;;;14.90;99.90;;;;;;10355601;28;20317;-79
2022/05/04 05:59:31;;;;;;;9.80;9.10;;;15.00;99.90;;;;;;10373172;28;20205;-80
2022/05/04 06:04:34;;;;;;;12.27;11.27;;;15.10;99.90;;;;;;10366048;28;20235;-80
2022/05/04 06:09:36;;;;;;;13.20;12.00;;;15.10;99.90;;;;;;10383434;28;20214;-80
2022/05/04 06:14:39;;;;;;;14.03;12.83;;;15.20;99.90;;;;;;10366964;28;20249;-79
2022/05/04 06:19:42;;;;;;;12.27;11.17;;;15.30;99.90;;;;;;10364115;28;20627;-79
2022/05/04 06:24:44;;;;;;;12.57;11.43;;;15.40;99.90;;;;;;10355167;28;20234;-80
2022/05/04 06:35:08;;;;;;;13.87;12.67;;;15.50;99.90;;;;;;10374657;28;20232;-79
2022/05/04 06:40:10;;;;;;;11.63;10.60;;;15.60;99.90;;;;;;10369865;28;20309;-79
2022/05/04 06:45:14;;;;;;;12.43;11.27;;;15.60;99.90;;;;;;10353569;28;20245;-79
2022/05/04 06:50:17;;;;;;;11.77;10.77;;;15.70;99.90;;;;;;10372240;28;20530;-80
2022/05/04 06:55:19;;;;;;;12.00;11.10;;;15.70;99.90;;;;;;10367218;28;20272;-80
2022/05/04 07:00:23;;;;;;;11.67;10.50;;;15.80;99.90;;;;;;10375022;28;20265;-80
2022/05/04 07:05:25;;;;;;;11.00;10.10;;;16.00;99.90;;;;;;10369409;28;20237;-80
2022/05/04 07:10:27;;;;;;;10.70;9.90;;;16.10;99.90;;;;;;10351887;28;20218;-81
2022/05/04 07:15:31;;;;;;;9.30;8.60;;;16.30;99.90;;;;;;10374437;28;20461;-81
2022/05/04 07:20:33;;;;;;;8.87;8.07;;;16.50;99.90;;;;;;10364251;28;20202;-79
2022/05/04 07:25:36;;;;;;;8.30;7.60;;;16.60;99.90;;;;;;10351720;28;20229;-80
2022/05/04 07:30:39;;;;;;;9.53;7.50;;;16.70;99.90;;;;;;10368286;28;20230;-81
2022/05/04 07:35:41;;;;;;;8.53;7.70;;;16.80;99.90;;;;;;10371594;28;20390;-80
2022/05/04 07:46:05;;;;;;;8.13;7.53;;;16.90;99.90;;;;;;10380962;28;20249;-79
2022/05/04 07:51:08;;;;;;;10.10;7.97;;;17.00;99.90;;;;;;10374544;28;20593;-79
2022/05/04 07:56:10;;;;;;;7.47;6.77;;;17.10;99.90;;;;;;10366679;28;20253;-79
2022/05/04 08:06:33;;;;;;;7.40;6.80;;;17.40;99.90;;;;;;10378610;28;20214;-80
2022/05/04 08:11:35;;;;;;;7.70;7.10;;;17.70;99.90;;;;;;10366098;28;20591;-79
2022/05/04 08:16:39;;;;;;;7.80;7.20;;;17.80;99.90;;;;;;10371194;28;20227;-79
2022/05/04 08:21:41;;;;;;;7.03;6.50;;;17.80;99.90;;;;;;10354621;28;20238;-78
2022/05/04 08:26:43;;;;;;;6.23;5.83;;;17.70;99.90;;;;;;10348604;28;20638;-80
2022/05/04 08:31:47;;;;;;;6.87;6.37;;;17.60;99.90;;;;;;10376974;28;20238;-79
2022/05/04 08:36:49;;;;;;;6.40;5.90;;;17.40;99.90;;;;;;10376936;28;20284;-79
2022/05/04 08:41:52;;;;;;;7.20;6.60;;;17.20;99.90;;;;;;10363701;28;20221;-80
2022/05/04 08:46:59;;;;;;;8.63;6.37;;;17.00;99.90;;;;;;10370579;28;20233;-79
2022/05/04 08:52:02;;;;;;;8.83;6.87;;;16.80;99.90;;;;;;10338873;28;20218;-78
2022/05/04 08:57:05;;;;;;;8.20;7.50;;;16.60;99.90;;;;;;10367021;28;20226;-79
2022/05/04 09:02:10;;;;;;;8.97;8.27;;;16.50;99.90;;;;;;10369480;28;20329;-78
2022/05/04 09:07:22;;;;;;;9.53;8.73;;;16.30;99.90;;;;;;10339178;28;20690;-79
2022/05/04 09:12:32;;;;;;;11.63;10.73;;;16.00;99.90;;;;;;10367699;28;20300;-78
2022/05/04 09:17:35;;;;;;;12.03;11.13;;;15.70;99.90;;;;;;10370818;28;20257;-78
2022/05/04 09:22:37;;;;;;;14.03;13.10;;;15.40;99.90;;;;;;10365044;28;20226;-78
2022/05/04 09:27:40;;;;;;;13.87;12.97;;;15.40;99.90;;;;;;10354636;28;20584;-79
2022/05/04 09:32:44;;;;;;;13.80;12.90;;;15.30;99.90;;;;;;10369639;28;20254;-79
2022/05/04 09:48:33;;;;;;;14.73;13.70;;;15.60;99.90;;;;;;10374967;28;20202;-78
2022/05/04 09:53:36;;;;;;;14.40;13.40;;;15.90;99.90;;;;;;10370585;28;20395;-79
2022/05/04 09:58:38;;;;;;;15.00;13.83;;;16.30;99.90;;;;;;10355752;28;20206;-78
2022/05/04 10:03:43;;;;;;;14.20;13.10;;;16.60;99.90;;;;;;10344007;28;20241;-78
2022/05/04 10:08:45;;;;;;;15.67;14.27;;;16.80;99.90;;;;;;10372575;28;20203;-79
2022/05/04 10:13:49;;;;;;;16.40;15.20;;;17.40;99.90;;;;;;10374829;28;20234;-79
2022/05/04 10:18:54;;;;;;;16.47;14.97;;;17.90;99.90;;;;;;10365163;28;20276;-78
2022/05/04 10:24:08;;;;;;;17.03;15.73;;;18.30;99.90;;;;;;10612081;27;20511;-80
2022/05/04 10:35:12;;;;;;;16.50;15.13;;;18.70;99.90;;;;;;10567675;28;20217;-80
2022/05/04 10:40:26;;;;;;;14.70;13.60;;;18.90;99.90;;;;;;10564793;28;20211;-80
2022/05/04 10:45:31;;;;;;;14.20;13.10;;;19.20;99.90;;;;;;10563350;28;20726;-79
2022/05/04 10:50:49;;;;;;;13.07;12.07;;;19.40;99.90;;;;;;10566170;28;20230;-80
2022/05/04 10:56:02;;;;;;;13.57;10.70;;;19.30;99.90;;;;;;10549869;28;20310;-80
2022/05/04 11:01:12;;;;;;;12.20;11.30;;;18.90;99.90;;;;;;10572479;28;20211;-80
2022/05/04 11:06:23;;;;;;;10.70;9.90;;;18.70;99.90;;;;;;10567670;28;20215;-80
2022/05/04 11:11:26;;;;;;;10.60;9.80;;;18.30;99.90;;;;;;10564821;28;20618;-79
2022/05/04 11:16:29;;;;;;;9.97;9.27;;;18.00;99.90;;;;;;10544349;28;20216;-79
2022/05/04 11:21:33;;;;;;;8.37;7.77;;;17.80;99.90;;;;;;10564415;28;20563;-78
2022/05/04 11:26:38;;;;;;;9.77;8.97;;;17.60;99.90;;;;;;10559251;28;20223;-79
2022/05/04 11:31:44;;;;;;;10.17;9.47;;;17.70;99.90;;;;;;10556540;28;20245;-78
2022/05/04 11:36:49;;;;;;;11.07;10.17;;;17.80;99.90;;;;;;10510661;22;20637;-84
2022/05/04 11:41:54;;;;;;;8.50;7.70;;;17.80;99.90;;;;;;10492742;28;20216;-83
2022/05/04 11:46:57;;;;;;;7.30;6.80;;;17.90;99.90;;;;;;10521733;28;20222;-83
2022/05/04 11:52:01;;;;;;;9.17;8.17;;;17.90;99.90;;;;;;10549714;28;20204;-84
2022/05/04 11:57:11;;;;;;;7.40;6.83;;;18.00;99.90;;;;;;10546118;28;20257;-78
2022/05/04 12:02:13;;;;;;;7.60;7.00;;;18.00;99.90;;;;;;10540779;28;20215;-78
2022/05/04 12:07:17;;;;;;;8.20;7.40;;;18.20;99.90;;;;;;10543635;28;20706;-78
2022/05/04 12:12:20;;;;;;;9.50;8.70;;;18.30;99.90;;;;;;10525149;28;20196;-80
2022/05/04 12:17:25;;;;;;;8.70;7.90;;;18.40;99.90;;;;;;10545360;28;20232;-78
2022/05/04 12:22:29;;;;;;;8.37;7.77;;;18.50;99.90;;;;;;10550292;28;20585;-78
2022/05/04 12:27:32;;;;;;;7.70;7.20;;;18.60;99.90;;;;;;10544723;28;20220;-78
2022/05/04 12:37:55;;;;;;;6.87;6.27;;;18.80;99.90;;;;;;10523219;28;20223;-78
2022/05/04 12:42:58;;;;;;;6.53;6.03;;;18.90;99.90;;;;;;10546925;28;20912;-81
2022/05/04 12:48:01;;;;;;;6.50;6.00;;;18.90;99.90;;;;;;10516000;28;20195;-81
2022/05/04 12:53:05;;;;;;;6.47;6.07;;;19.00;99.90;;;;;;10514613;28;20192;-78
2022/05/04 12:58:07;;;;;;;6.20;5.80;;;19.10;99.90;;;;;;10531161;28;20203;-79
2022/05/04 13:03:12;;;;;;;5.70;5.40;;;19.10;99.90;;;;;;10512642;28;20691;-80
2022/05/04 13:08:17;;;;;;;9.53;8.63;;;19.10;99.90;;;;;;10532968;28;20208;-83
2022/05/04 13:13:21;;;;;;;6.97;6.13;;;19.00;99.90;;;;;;10531062;28;20277;-83
2022/05/04 13:18:23;;;;;;;7.00;6.53;;;18.90;99.90;;;;;;10530421;28;20276;-82
2022/05/04 13:23:27;;;;;;;7.07;6.37;;;18.90;99.90;;;;;;10511352;28;20224;-82
2022/05/04 13:28:31;;;;;;;9.00;6.27;;;18.80;99.90;;;;;;10525355;28;20200;-80
2022/05/04 13:33:33;;;;;;;6.77;6.30;;;18.60;99.90;;;;;;10545686;28;20223;-80
2022/05/04 13:38:37;;;;;;;5.93;5.53;;;18.50;99.90;;;;;;10545690;28;20274;-82
2022/05/04 13:43:39;;;;;;;5.80;5.40;;;18.40;99.90;;;;;;10511441;28;20219;-82
2022/05/04 13:48:44;;;;;;;5.53;5.03;;;18.40;99.90;;;;;;10545850;28;20196;-82
2022/05/04 13:53:47;;;;;;;5.47;5.07;;;18.40;99.90;;;;;;10539208;28;20224;-81
2022/05/04 13:58:49;;;;;;;5.63;5.23;;;18.40;99.90;;;;;;10544909;28;20634;-80
2022/05/04 14:03:52;;;;;;;6.43;5.60;;;18.40;99.90;;;;;;10525128;28;20652;-81
2022/05/04 14:08:55;;;;;;;5.70;5.30;;;18.30;99.90;;;;;;10504135;28;20208;-78
2022/05/04 14:19:13;;;;;;;5.30;4.90;;;18.30;99.90;;;;;;10540644;28;20235;-79
2022/05/04 14:24:17;;;;;;;5.03;4.70;;;18.40;99.90;;;;;;10523098;28;20231;-79
2022/05/04 14:29:20;;;;;;;6.27;5.87;;;18.40;99.90;;;;;;10528073;28;20227;-79
2022/05/04 14:34:23;;;;;;;5.43;5.03;;;18.40;99.90;;;;;;10538073;28;20265;-80
2022/05/04 14:39:27;;;;;;;6.63;4.60;;;18.50;99.90;;;;;;10535669;28;20199;-80
2022/05/04 14:44:29;;;;;;;4.67;4.17;;;18.60;99.90;;;;;;10516991;28;20269;-78
2022/05/04 14:49:31;;;;;;;3.93;3.63;;;18.70;99.90;;;;;;10521580;28;20200;-78
2022/05/04 14:54:34;;;;;;;4.03;3.83;;;18.80;99.90;;;;;;10520768;28;20273;-78
2022/05/04 14:59:37;;;;;;;4.73;4.40;;;18.90;99.90;;;;;;10519116;28;20211;-79
2022/05/04 15:10:01;;;;;;;5.40;5.00;;;18.90;99.90;;;;;;10533216;28;20192;-82
2022/05/04 15:15:03;;;;;;;5.97;5.57;;;18.90;99.90;;;;;;10539009;28;20245;-82
2022/05/04 15:20:06;;;;;;;6.37;5.70;;;18.90;99.90;;;;;;10556078;28;20234;-82
2022/05/04 15:25:10;;;;;;;6.00;5.50;;;18.80;99.90;;;;;;10554802;28;20220;-82
2022/05/04 15:30:13;;;;;;;5.50;5.10;;;18.70;99.90;;;;;;10553292;28;20203;-82
2022/05/04 15:35:15;;;;;;;5.10;4.70;;;18.70;99.90;;;;;;10567106;28;20250;-80
2022/05/04 15:40:19;;;;;;;5.10;4.70;;;18.70;99.90;;;;;;10544748;28;20207;-80
2022/05/04 15:45:21;;;;;;;4.87;4.47;;;18.70;99.90;;;;;;10526125;28;20215;-80
2022/05/04 15:50:24;;;;;;;4.37;4.07;;;18.70;99.90;;;;;;10540796;28;20270;-80
2022/05/04 15:55:27;;;;;;;4.97;4.47;;;18.70;99.90;;;;;;10565056;28;20273;-80
2022/05/04 16:00:30;;;;;;;4.40;4.10;;;18.70;99.90;;;;;;10570131;28;20219;-79
2022/05/04 16:05:32;;;;;;;3.93;3.73;;;18.60;99.90;;;;;;10561770;28;20216;-79
2022/05/04 16:10:35;;;;;;;4.40;4.10;;;18.60;99.90;;;;;;10544465;28;20249;-79
2022/05/04 16:15:37;;;;;;;3.93;3.63;;;18.60;99.90;;;;;;10535509;28;20310;-81
2022/05/04 16:26:01;;;;;;;3.50;3.30;;;18.40;99.90;;;;;;10537727;28;20219;-80
2022/05/04 16:31:03;;;;;;;3.83;3.63;;;18.50;99.90;;;;;;10539036;28;20558;-79
2022/05/04 16:36:06;;;;;;;4.00;3.80;;;18.60;99.90;;;;;;10528886;28;20242;-78
2022/05/04 16:41:10;;;;;;;6.30;5.37;;;18.50;99.90;;;;;;10535748;28;20627;-78
2022/05/04 16:46:12;;;;;;;7.27;6.77;;;18.50;99.90;;;;;;10517432;28;20221;-81
2022/05/04 16:51:15;;;;;;;7.70;7.00;;;18.40;99.90;;;;;;10523927;28;20613;-80
2022/05/04 16:56:19;;;;;;;10.27;8.00;;;18.20;99.90;;;;;;10516946;28;20265;-81
2022/05/04 17:01:21;;;;;;;8.30;7.20;;;18.10;99.90;;;;;;10537070;28;20232;-81
2022/05/04 17:06:23;;;;;;;7.90;7.20;;;18.00;99.90;;;;;;10499203;28;20324;-80
2022/05/04 17:11:27;;;;;;;7.30;6.80;;;17.90;99.90;;;;;;10524948;28;20227;-81
2022/05/04 17:16:29;;;;;;;8.53;7.87;;;17.70;99.90;;;;;;10502690;28;20215;-82
2022/05/04 17:21:31;;;;;;;8.20;7.60;;;17.60;99.90;;;;;;10521082;28;20212;-81
2022/05/04 17:26:35;;;;;;;7.33;6.70;;;17.50;99.90;;;;;;10515673;28;20248;-80
2022/05/04 17:31:37;;;;;;;7.43;6.87;;;17.40;99.90;;;;;;10517534;28;20204;-82
2022/05/04 17:36:46;;;;;;;8.30;7.60;;;17.30;99.90;;;;;;10474880;22;20666;-86
2022/05/04 17:41:50;;;;;;;7.47;6.90;;;17.20;99.90;;;;;;10452275;28;20393;-83
2022/05/04 17:46:52;;;;;;;8.20;7.60;;;17.10;99.90;;;;;;10414333;28;20285;-84
2022/05/04 17:51:54;;;;;;;7.70;7.17;;;17.10;99.90;;;;;;10418763;28;20198;-87
2022/05/04 17:56:58;;;;;;;6.67;6.17;;;17.10;99.90;;;;;;10389575;28;20321;-87
2022/05/04 18:07:20;;;;;;;7.37;6.73;;;17.00;99.90;;;;;;10406507;28;20264;-83
2022/05/04 18:12:24;;;;;;;7.33;6.73;;;17.00;99.90;;;;;;10401476;28;20209;-86
2022/05/04 18:17:26;;;;;;;8.40;7.70;;;17.00;99.90;;;;;;10405770;28;20230;-86
2022/05/04 18:22:29;;;;;;;8.40;7.50;;;16.90;99.90;;;;;;10393150;28;20228;-86
2022/05/04 18:27:32;;;;;;;8.87;8.17;;;16.90;99.90;;;;;;10421619;28;20233;-86
2022/05/04 18:32:35;;;;;;;8.83;8.13;;;16.80;99.90;;;;;;10399554;28;20688;-85
2022/05/04 18:37:37;;;;;;;10.87;9.97;;;16.70;99.90;;;;;;10390081;28;20248;-87
2022/05/04 18:42:41;;;;;;;9.60;8.80;;;16.60;99.90;;;;;;10402397;28;20222;-83
2022/05/04 18:47:43;;;;;;;10.20;9.40;;;16.60;99.90;;;;;;10412209;28;20226;-86
2022/05/04 18:52:45;;;;;;;9.50;8.80;;;16.60;99.90;;;;;;10396435;28;20750;-84
2022/05/04 18:57:49;;;;;;;10.93;10.10;;;16.50;99.90;;;;;;10409418;28;20769;-85
2022/05/04 19:02:51;;;;;;;12.27;11.27;;;16.40;99.90;;;;;;10394346;28;20317;-86
2022/05/04 19:07:57;;;;;;;10.90;10.10;;;16.30;99.90;;;;;;10409308;28;20251;-88
2022/05/04 19:13:00;;;;;;;11.43;10.50;;;16.20;99.90;;;;;;10410811;28;20209;-83
2022/05/04 19:18:04;;;;;;;10.20;9.30;;;16.20;99.90;;;;;;10396774;28;20773;-88
2022/05/04 19:23:08;;;;;;;9.43;8.80;;;16.10;99.90;;;;;;10379734;28;20222;-84
2022/05/04 19:28:11;;;;;;;9.87;9.17;;;16.10;99.90;;;;;;10414191;28;20653;-86
2022/05/04 19:33:13;;;;;;;9.30;8.60;;;16.00;99.90;;;;;;10397030;28;20193;-86
2022/05/04 19:38:16;;;;;;;10.27;9.47;;;16.00;99.90;;;;;;10423856;28;20233;-87
2022/05/04 19:43:21;;;;;;;10.50;9.60;;;15.90;99.90;;;;;;10395379;28;20237;-86
2022/05/04 19:48:24;;;;;;;10.67;9.70;;;15.90;99.90;;;;;;10385733;28;20221;-89
2022/05/04 19:53:27;;;;;;;9.97;9.27;;;15.80;99.90;;;;;;10425378;28;20233;-86
2022/05/04 19:58:31;;;;;;;10.13;8.93;;;15.70;99.90;;;;;;10431339;28;20198;-84
2022/05/04 20:03:33;;;;;;;8.90;8.30;;;15.60;99.90;;;;;;10405870;28;20217;-87
2022/05/04 20:08:37;;;;;;;8.70;8.00;;;15.50;99.90;;;;;;10426616;28;20205;-88
2022/05/04 20:13:41;;;;;;;8.20;7.67;;;15.30;99.90;;;;;;10396480;28;20303;-86
2022/05/04 20:18:43;;;;;;;8.23;7.63;;;15.30;99.90;;;;;;10401079;28;20204;-85
2022/05/04 20:24:09;;;;;;;8.30;7.60;;;15.20;99.90;;;;;;10429497;28;20588;-86
2022/05/04 20:29:12;;;;;;;8.67;7.80;;;15.20;99.90;;;;;;10389070;28;20225;-84
2022/05/04 20:34:25;;;;;;;8.27;7.57;;;15.20;99.90;;;;;;10422001;28;20284;-84
2022/05/04 20:39:37;;;;;;;7.23;6.83;;;15.10;99.90;;;;;;10397048;28;20399;-84
2022/05/04 20:44:41;;;;;;;7.67;7.10;;;15.10;99.90;;;;;;10407590;28;20225;-86
2022/05/04 20:49:52;;;;;;;7.90;7.27;;;15.00;99.90;;;;;;10399597;28;20217;-86
2022/05/04 20:54:55;;;;;;;8.50;7.90;;;15.00;99.90;;;;;;10390460;28;20222;-84
2022/05/04 21:00:45;;;;;;;8.60;8.00;;;15.10;99.90;;;;;;10407742;28;20576;-85
2022/05/04 21:11:12;;;;;;;8.90;8.10;;;15.20;99.90;;;;;;10765789;22;20264;-86
2022/05/04 21:16:15;;;;;;;8.60;8.00;;;15.20;99.90;;;;;;10502795;28;20239;-86
2022/05/04 21:21:19;;;;;;;8.00;7.40;;;15.30;99.90;;;;;;10453773;28;20640;-86
2022/05/04 21:27:03;;;;;;;8.83;8.07;;;15.30;99.90;;;;;;10464074;28;20225;-87
2022/05/04 21:32:08;;;;;;;8.07;7.57;;;15.30;99.90;;;;;;10458182;28;20296;-84
2022/05/04 21:37:10;;;;;;;8.40;7.80;;;15.30;99.90;;;;;;10428356;22;20222;-85
2022/05/04 21:42:12;;;;;;;9.20;8.40;;;15.30;99.90;;;;;;10370339;28;20751;-84
2022/05/04 21:47:18;;;;;;;9.03;8.33;;;15.30;99.90;;;;;;10361342;28;20237;-86
2022/05/04 21:52:20;;;;;;;8.20;7.60;;;15.30;99.90;;;;;;10388332;28;20657;-86
2022/05/04 21:57:22;;;;;;;8.93;8.20;;;15.20;99.90;;;;;;10373131;28;20225;-85
2022/05/04 22:02:26;;;;;;;9.57;8.70;;;15.20;99.90;;;;;;10371735;28;20216;-86
2022/05/04 22:07:31;;;;;;;8.20;7.70;;;15.20;99.90;;;;;;10374807;28;20224;-87
2022/05/04 22:17:54;;;;;;;8.67;8.07;;;15.10;99.90;;;;;;10388022;28;20318;-86
2022/05/04 22:22:57;;;;;;;9.77;8.97;;;15.10;99.90;;;;;;10383331;28;20226;-85
2022/05/04 22:28:01;;;;;;;7.80;7.30;;;15.00;99.90;;;;;;10388726;28;20237;-85
2022/05/04 22:33:05;;;;;;;8.37;7.67;;;14.90;99.90;;;;;;10374849;28;20293;-85
2022/05/04 22:38:07;;;;;;;8.90;8.00;;;14.80;99.90;;;;;;10357248;28;20268;-85
2022/05/04 22:43:10;;;;;;;9.10;8.37;;;14.70;99.90;;;;;;10394379;28;20222;-86
2022/05/04 22:48:14;;;;;;;8.47;7.77;;;14.70;99.90;;;;;;10377060;28;20627;-85
2022/05/04 22:53:18;;;;;;;8.43;7.93;;;14.70;99.90;;;;;;10409587;28;20209;-84
2022/05/04 22:58:21;;;;;;;8.13;7.53;;;14.60;99.90;;;;;;10363825;28;20513;-84
2022/05/04 23:03:24;;;;;;;8.20;7.60;;;14.50;99.90;;;;;;10408070;28;20210;-85
2022/05/04 23:08:26;;;;;;;10.03;9.23;;;14.50;99.90;;;;;;10392487;28;20202;-85
2022/05/04 23:13:31;;;;;;;9.70;9.00;;;14.40;99.90;;;;;;10404702;28;20194;-84
2022/05/04 23:18:37;;;;;;;8.80;8.20;;;14.30;99.90;;;;;;10371708;28;20194;-84
2022/05/04 23:23:40;;;;;;;9.43;8.77;;;14.30;99.90;;;;;;10393403;28;20209;-84
2022/05/04 23:28:42;;;;;;;10.90;10.10;;;14.20;99.90;;;;;;10416247;28;20237;-82
2022/05/04 23:39:00;;;;;;;9.57;8.87;;;14.00;99.90;;;;;;10452349;28;20308;-78
2022/05/04 23:44:03;;;;;;;10.10;9.30;;;13.90;99.90;;;;;;10461448;28;20250;-79
2022/05/04 23:49:05;;;;;;;10.33;9.60;;;13.90;99.90;;;;;;10496325;28;20205;-79
2022/05/04 23:54:09;;;;;;;12.17;9.90;;;13.90;99.90;;;;;;10499737;28;20806;-79
2022/05/04 23:59:14;;;;;;;10.80;10.00;;;13.90;99.90;;;;;;10510083;28;20207;-79
